createdAt,value
2022-12-19T00:00:06.226Z,41.30
2022-12-19T00:02:37.297Z,42.30
2022-12-19T00:05:04.296Z,42.50
2022-12-19T00:07:30.983Z,41.30
2022-12-19T00:09:57.872Z,42.30
2022-12-19T00:12:24.604Z,42.30
2022-12-19T00:15:00.646Z,43.40
2022-12-19T00:17:28.970Z,41.70
2022-12-19T00:19:58.392Z,43.20
2022-12-19T00:22:25.202Z,41.40
2022-12-19T00:24:52.041Z,42.40
2022-12-19T00:27:18.721Z,42.00
2022-12-19T00:29:45.457Z,43.00
2022-12-19T00:32:13.366Z,42.40
2022-12-19T00:34:42.715Z,42.20
2022-12-19T00:37:09.357Z,41.10
2022-12-19T00:39:36.450Z,41.90
2022-12-19T00:42:03.123Z,42.00
2022-12-19T00:44:29.830Z,42.70
2022-12-19T00:46:56.425Z,43.70
2022-12-19T00:49:23.165Z,42.80
2022-12-19T00:51:49.978Z,43.20
2022-12-19T00:54:16.677Z,42.40
2022-12-19T00:56:43.832Z,42.40
2022-12-19T00:59:10.683Z,42.60
2022-12-19T01:01:41.345Z,42.90
2022-12-19T01:04:29.743Z,43.20
2022-12-19T01:07:01.638Z,44.80
2022-12-19T01:09:29.828Z,43.50
2022-12-19T01:12:15.077Z,43.50
2022-12-19T01:14:41.722Z,43.00
2022-12-19T01:17:08.325Z,44.20
2022-12-19T01:19:38.966Z,43.60
2022-12-19T01:22:08.758Z,44.00
2022-12-19T01:24:35.556Z,45.30
2022-12-19T01:27:02.220Z,44.90
2022-12-19T01:29:28.878Z,44.40
2022-12-19T01:31:56.933Z,45.00
2022-12-19T01:34:23.648Z,45.00
2022-12-19T01:36:50.341Z,45.30
2022-12-19T01:39:17.038Z,43.70
2022-12-19T01:41:45.648Z,43.80
2022-12-19T01:44:12.420Z,43.80
2022-12-19T01:46:43.359Z,45.40
2022-12-19T01:49:22.043Z,44.20
2022-12-19T01:51:53.419Z,44.50
2022-12-19T01:54:22.652Z,43.80
2022-12-19T01:56:52.794Z,43.80
2022-12-19T01:59:22.875Z,43.60
2022-12-19T02:01:52.560Z,45.10
2022-12-19T02:04:19.905Z,45.30
2022-12-19T02:06:47.358Z,44.30
2022-12-19T02:09:14.732Z,45.40
2022-12-19T02:11:41.629Z,44.90
2022-12-19T02:14:08.300Z,45.40
2022-12-19T02:17:03.880Z,45.50
2022-12-19T02:20:07.122Z,46.60
2022-12-19T02:22:42.670Z,45.70
2022-12-19T02:25:48.917Z,46.00
2022-12-19T02:28:44.079Z,47.90
2022-12-19T02:31:19.849Z,48.30
2022-12-19T02:34:16.254Z,46.80
2022-12-19T02:37:10.223Z,48.70
2022-12-19T02:39:43.075Z,47.00
2022-12-19T02:42:12.623Z,46.70
2022-12-19T02:44:45.628Z,45.40
2022-12-19T02:47:13.036Z,48.10
2022-12-19T02:49:39.815Z,46.70
2022-12-19T02:52:20.043Z,47.60
2022-12-19T02:54:49.218Z,49.00
2022-12-19T02:57:28.420Z,48.50
2022-12-19T03:00:02.930Z,48.90
2022-12-19T03:02:35.221Z,47.70
2022-12-19T03:05:22.885Z,48.10
2022-12-19T03:07:56.552Z,47.80
2022-12-19T03:10:34.604Z,46.10
2022-12-19T03:13:33.685Z,47.40
2022-12-19T03:16:01.641Z,48.20
2022-12-19T03:18:28.408Z,46.80
2022-12-19T03:21:05.010Z,46.70
2022-12-19T03:23:32.114Z,48.60
2022-12-19T03:26:04.417Z,47.90
2022-12-19T03:28:43.496Z,48.00
2022-12-19T03:31:11.229Z,47.30
2022-12-19T03:33:38.593Z,49.10
2022-12-19T03:36:08.154Z,47.40
2022-12-19T03:38:36.187Z,47.70
2022-12-19T03:41:04.606Z,47.40
2022-12-19T03:43:32.275Z,49.70
2022-12-19T03:46:03.721Z,48.60
2022-12-19T03:48:43.160Z,48.90
2022-12-19T03:51:25.250Z,47.60
2022-12-19T03:54:03.526Z,49.30
2022-12-19T03:56:45.976Z,47.30
2022-12-19T03:59:34.705Z,47.90
2022-12-19T04:02:03.256Z,48.90
2022-12-19T04:04:31.090Z,49.00
2022-12-19T04:06:58.707Z,49.20
2022-12-19T04:09:25.516Z,50.10
2022-12-19T04:11:55.598Z,50.80
2022-12-19T04:14:32.182Z,50.40
2022-12-19T04:17:20.215Z,48.90
2022-12-19T04:19:55.428Z,50.50
2022-12-19T04:22:44.232Z,49.90
2022-12-19T04:25:14.587Z,50.40
2022-12-19T04:27:48.558Z,51.80
2022-12-19T04:30:17.167Z,48.80
2022-12-19T04:32:43.977Z,50.40
2022-12-19T04:35:10.756Z,51.50
2022-12-19T04:37:37.560Z,50.20
2022-12-19T04:40:06.302Z,49.00
2022-12-19T04:42:33.622Z,48.90
2022-12-19T04:45:04.823Z,49.50
2022-12-19T04:47:31.555Z,51.30
2022-12-19T04:49:58.160Z,50.70
2022-12-19T04:52:24.771Z,51.80
2022-12-19T04:54:51.393Z,51.90
2022-12-19T04:57:18.092Z,51.20
2022-12-19T04:59:44.762Z,51.00
2022-12-19T05:02:11.477Z,52.20
2022-12-19T05:04:38.618Z,51.50
2022-12-19T05:07:05.336Z,51.50
2022-12-19T05:09:32.042Z,50.90
2022-12-19T05:11:58.687Z,52.20
2022-12-19T05:14:25.377Z,50.30
2022-12-19T05:16:54.833Z,52.40
2022-12-19T05:19:25.635Z,51.80
2022-12-19T05:21:52.444Z,52.20
2022-12-19T05:24:19.058Z,53.00
2022-12-19T05:26:45.741Z,51.00
2022-12-19T05:29:12.569Z,52.00
2022-12-19T05:31:39.326Z,50.20
2022-12-19T05:34:06.033Z,51.70
2022-12-19T05:36:32.909Z,49.30
2022-12-19T05:38:59.665Z,48.90
2022-12-19T05:41:26.305Z,49.70
2022-12-19T05:43:54.826Z,49.30
2022-12-19T05:46:23.184Z,52.90
2022-12-19T05:48:50.084Z,52.50
2022-12-19T05:51:17.533Z,53.70
2022-12-19T05:53:44.766Z,53.10
2022-12-19T05:56:20.613Z,53.90
2022-12-19T05:58:47.713Z,53.30
2022-12-19T06:01:20.460Z,51.60
2022-12-19T06:03:47.410Z,52.10
2022-12-19T06:06:16.872Z,52.60
2022-12-19T06:08:44.246Z,53.60
2022-12-19T06:11:12.471Z,54.60
2022-12-19T06:13:39.240Z,53.60
2022-12-19T06:16:15.023Z,53.00
2022-12-19T06:18:44.836Z,53.30
2022-12-19T06:21:20.739Z,51.60
2022-12-19T06:23:47.634Z,52.70
2022-12-19T06:26:19.544Z,54.30
2022-12-19T06:28:47.450Z,54.60
2022-12-19T06:31:15.337Z,55.20
2022-12-19T06:33:42.604Z,56.30
2022-12-19T06:36:16.540Z,55.70
2022-12-19T06:38:43.166Z,56.50
2022-12-19T06:41:29.441Z,55.20
2022-12-19T06:44:00.122Z,56.10
2022-12-19T06:46:27.409Z,54.60
2022-12-19T06:48:54.076Z,54.00
2022-12-19T06:51:20.972Z,56.20
2022-12-19T06:53:47.610Z,56.40
2022-12-19T06:56:15.803Z,54.80
2022-12-19T06:58:42.785Z,56.10
2022-12-19T07:01:20.257Z,55.20
2022-12-19T07:03:47.901Z,54.50
2022-12-19T07:06:15.382Z,56.60
2022-12-19T07:08:42.460Z,56.30
2022-12-19T07:11:09.267Z,55.60
2022-12-19T07:13:36.923Z,55.80
2022-12-19T07:16:05.648Z,53.10
2022-12-19T07:18:35.590Z,53.10
2022-12-19T07:21:02.835Z,55.00
2022-12-19T07:23:31.202Z,56.70
2022-12-19T07:25:58.368Z,54.80
2022-12-19T07:28:25.239Z,56.30
2022-12-19T07:30:51.870Z,56.60
2022-12-19T07:33:21.588Z,56.70
2022-12-19T07:35:49.245Z,59.00
2022-12-19T07:38:16.114Z,58.20
2022-12-19T07:40:42.960Z,56.80
2022-12-19T07:43:10.676Z,57.00
2022-12-19T07:45:38.413Z,56.70
2022-12-19T07:48:06.441Z,57.00
2022-12-19T07:50:33.363Z,56.60
2022-12-19T07:53:00.506Z,56.90
2022-12-19T07:55:27.303Z,57.60
2022-12-19T07:57:55.382Z,58.30
2022-12-19T08:00:22.482Z,58.40
2022-12-19T08:02:49.589Z,58.60
2022-12-19T08:05:16.485Z,58.50
2022-12-19T08:07:43.200Z,59.20
2022-12-19T08:10:11.485Z,57.90
2022-12-19T08:12:38.307Z,58.70
2022-12-19T08:15:05.815Z,58.30
2022-12-19T08:17:34.445Z,58.40
2022-12-19T08:20:01.694Z,60.00
2022-12-19T08:22:30.549Z,60.60
2022-12-19T08:24:57.747Z,59.60
2022-12-19T08:27:24.555Z,61.40
2022-12-19T08:29:51.627Z,62.80
2022-12-19T08:32:21.259Z,62.80
2022-12-19T08:34:49.988Z,60.90
2022-12-19T08:37:17.503Z,61.50
2022-12-19T08:39:44.422Z,63.30
2022-12-19T08:42:11.254Z,63.10
2022-12-19T08:44:38.212Z,64.60
2022-12-19T08:47:04.978Z,63.70
2022-12-19T08:49:34.569Z,66.40
2022-12-19T08:52:03.386Z,65.60
2022-12-19T08:54:30.091Z,73.20
2022-12-19T08:56:56.750Z,65.80
2022-12-19T08:59:30.318Z,67.40
2022-12-19T09:02:00.065Z,67.60
2022-12-19T09:05:57.273Z,66.40
2022-12-19T09:07:15.563Z,68.30
2022-12-19T09:09:43.520Z,71.00
2022-12-19T09:12:10.342Z,70.20
2022-12-19T09:14:37.226Z,70.80
2022-12-19T09:17:04.824Z,70.30
2022-12-19T09:19:32.539Z,72.10
2022-12-19T09:21:59.658Z,74.00
2022-12-19T09:24:26.687Z,76.10
2022-12-19T09:26:53.672Z,74.20
2022-12-19T09:29:21.943Z,76.00
2022-12-19T09:32:03.033Z,78.50
2022-12-19T09:34:58.222Z,74.90
2022-12-19T09:37:46.231Z,78.30
2022-12-19T09:40:24.754Z,78.20
2022-12-19T09:43:43.792Z,77.60
2022-12-19T09:46:34.368Z,76.70
2022-12-19T09:57:36.643Z,81.40
2022-12-19T10:00:08.284Z,82.10
2022-12-19T10:02:53.893Z,84.70
2022-12-19T10:06:48.483Z,86.00
2022-12-19T10:08:26.117Z,86.20
2022-12-19T10:12:39.581Z,85.60
2022-12-19T10:14:07.848Z,85.50
2022-12-19T10:17:24.094Z,86.60
2022-12-19T10:20:16.207Z,86.30
2022-12-19T10:23:05.348Z,86.30
2022-12-19T10:25:44.161Z,86.80
2022-12-19T10:28:20.836Z,84.70
2022-12-19T10:31:22.949Z,85.20
2022-12-19T10:34:22.027Z,85.50
2022-12-19T10:39:46.108Z,87.40
2022-12-19T10:42:45.223Z,87.60
2022-12-19T10:45:20.567Z,88.40
2022-12-19T10:48:06.513Z,89.40
2022-12-19T10:50:34.230Z,89.50
2022-12-19T10:53:03.958Z,88.90
2022-12-19T10:55:34.896Z,88.70
2022-12-19T10:58:17.330Z,86.60
2022-12-19T11:01:05.206Z,86.20
2022-12-19T11:03:35.481Z,86.30
2022-12-19T11:06:03.763Z,86.80
2022-12-19T11:08:35.758Z,87.30
2022-12-19T11:14:21.297Z,87.60
2022-12-19T11:19:28.802Z,87.70
2022-12-19T11:19:33.128Z,87.40
2022-12-19T11:29:32.231Z,86.80
2022-12-19T11:29:34.915Z,87.60
2022-12-19T11:30:37.770Z,87.10
2022-12-19T11:30:41.544Z,87.90
2022-12-19T11:34:07.399Z,89.50
2022-12-19T11:36:48.038Z,88.30
2022-12-19T11:39:42.836Z,88.40
2022-12-19T11:42:21.960Z,90.40
2022-12-19T11:44:53.593Z,90.00
2022-12-19T11:47:33.886Z,90.60
2022-12-19T11:50:04.875Z,90.90
2022-12-19T11:55:53.536Z,90.80
2022-12-19T11:58:20.942Z,90.90
2022-12-19T12:00:56.023Z,90.80
2022-12-19T12:03:59.256Z,91.10
2022-12-19T12:06:34.537Z,91.00
2022-12-19T12:14:08.009Z,92.10
2022-12-19T12:23:46.517Z,92.60
2022-12-19T12:28:24.355Z,92.30
2022-12-19T12:31:11.078Z,93.10
2022-12-19T12:31:29.991Z,92.60
2022-12-19T12:31:48.722Z,93.20
2022-12-19T12:32:05.260Z,93.20
2022-12-19T12:35:56.947Z,93.80
2022-12-19T12:40:26.630Z,93.40
2022-12-19T12:43:14.746Z,93.60
2022-12-19T12:45:44.966Z,93.00
2022-12-19T12:48:27.907Z,93.10
2022-12-19T12:50:56.481Z,92.90
2022-12-19T12:53:28.775Z,92.60
2022-12-19T12:55:57.349Z,93.20
2022-12-19T12:58:42.802Z,93.40
2022-12-19T13:01:32.815Z,93.00
2022-12-19T13:04:02.477Z,92.60
2022-12-19T13:06:36.071Z,91.90
2022-12-19T13:09:05.175Z,92.30
2022-12-19T13:12:00.280Z,92.00
2022-12-19T13:14:37.142Z,92.50
2022-12-19T13:17:12.713Z,92.00
2022-12-19T13:20:05.193Z,92.30
2022-12-19T13:22:32.372Z,91.40
2022-12-19T13:25:00.710Z,91.80
2022-12-19T13:27:27.305Z,91.60
2022-12-19T13:29:54.333Z,90.70
2022-12-19T13:32:22.097Z,90.70
2022-12-19T13:35:14.610Z,90.40
2022-12-19T13:39:49.479Z,90.20
2022-12-19T13:40:59.823Z,88.70
2022-12-19T13:43:47.909Z,87.20
2022-12-19T13:46:37.920Z,84.80
2022-12-19T13:49:34.275Z,85.00
2022-12-19T13:52:03.515Z,84.80
2022-12-19T13:54:34.785Z,84.30
2022-12-19T13:57:08.048Z,83.70
2022-12-19T13:59:38.523Z,83.80
2022-12-19T14:02:27.736Z,82.30
2022-12-19T14:04:54.581Z,82.30
2022-12-19T14:07:39.896Z,81.90
2022-12-19T14:11:42.933Z,81.20
2022-12-19T14:13:39.989Z,82.10
2022-12-19T14:16:19.770Z,81.60
2022-12-19T14:18:50.534Z,81.20
2022-12-19T14:22:05.975Z,81.40
2022-12-19T14:24:11.398Z,81.50
2022-12-19T14:28:22.205Z,81.50
2022-12-19T14:29:45.600Z,82.10
2022-12-19T14:33:40.560Z,80.20
2022-12-19T14:36:07.996Z,80.30
2022-12-19T14:39:22.317Z,79.50
2022-12-19T14:41:07.308Z,78.30
2022-12-19T14:43:59.668Z,76.80
2022-12-19T14:51:25.266Z,75.80
2022-12-19T14:54:10.511Z,75.20
2022-12-19T14:54:41.912Z,74.60
2022-12-19T14:56:16.162Z,76.70
2022-12-19T14:58:52.515Z,78.40
2022-12-19T15:01:27.760Z,78.20
2022-12-19T15:04:52.704Z,78.10
2022-12-19T15:07:13.643Z,78.80
2022-12-19T15:10:59.360Z,81.50
2022-12-19T15:14:46.712Z,82.40
2022-12-19T15:15:42.404Z,82.50
2022-12-19T15:18:19.868Z,83.60
2022-12-19T15:20:46.559Z,84.20
2022-12-19T15:23:19.837Z,84.80
2022-12-19T15:26:06.065Z,84.30
2022-12-19T15:28:40.471Z,84.40
2022-12-19T15:31:18.563Z,85.80
2022-12-19T15:34:14.360Z,84.60
2022-12-19T15:36:31.797Z,83.50
2022-12-19T15:38:58.915Z,82.60
2022-12-19T15:41:25.633Z,83.00
2022-12-19T15:44:03.795Z,83.50
2022-12-19T15:46:31.782Z,84.20
2022-12-19T15:48:58.451Z,84.40
2022-12-19T15:51:25.048Z,85.20
2022-12-19T15:53:51.725Z,87.90
2022-12-19T15:56:29.057Z,87.60
2022-12-19T15:58:57.560Z,89.40
2022-12-19T16:01:24.441Z,87.90
2022-12-19T16:03:51.515Z,89.40
2022-12-19T16:06:18.576Z,89.60
2022-12-19T16:08:45.222Z,89.20
2022-12-19T16:11:23.857Z,87.20
2022-12-19T16:13:54.558Z,89.10
2022-12-19T16:16:21.728Z,88.10
2022-12-19T16:18:48.795Z,89.80
2022-12-19T16:21:22.595Z,88.70
2022-12-19T16:23:52.125Z,89.50
2022-12-19T16:26:32.848Z,89.50
2022-12-19T16:28:59.754Z,90.20
2022-12-19T16:31:27.582Z,87.30
2022-12-19T16:33:54.416Z,88.80
2022-12-19T16:36:21.594Z,90.70
2022-12-19T16:38:48.586Z,90.00
2022-12-19T16:41:21.637Z,90.40
2022-12-19T16:43:48.597Z,91.10
2022-12-19T16:46:20.816Z,91.20
2022-12-19T16:48:48.385Z,92.20
2022-12-19T16:51:21.283Z,92.40
2022-12-19T16:53:50.611Z,92.50
2022-12-19T16:56:36.462Z,93.10
2022-12-19T17:00:01.883Z,92.80
2022-12-19T17:09:25.503Z,93.10
2022-12-19T17:13:21.751Z,95.00
2022-12-19T17:15:27.166Z,93.40
2022-12-19T17:18:12.569Z,93.20
2022-12-19T17:20:48.171Z,95.40
2022-12-19T17:23:18.304Z,95.90
2022-12-19T17:28:51.474Z,94.20
2022-12-19T17:37:49.618Z,94.40
2022-12-19T17:40:21.515Z,94.80
2022-12-19T17:42:48.783Z,94.60
2022-12-19T17:45:16.375Z,95.00
2022-12-19T17:47:44.248Z,94.50
2022-12-19T17:50:24.202Z,95.10
2022-12-19T17:52:51.630Z,94.90
2022-12-19T17:55:24.665Z,95.10
2022-12-19T17:57:51.953Z,94.60
2022-12-19T18:00:26.721Z,94.40
2022-12-19T18:02:57.109Z,94.20
2022-12-19T18:05:28.157Z,94.90
2022-12-19T18:07:55.285Z,95.20
2022-12-19T18:10:27.498Z,95.50
2022-12-19T18:12:54.685Z,95.30
2022-12-19T18:15:22.266Z,95.10
2022-12-19T18:17:50.213Z,94.10
2022-12-19T18:20:31.943Z,94.30
2022-12-19T18:23:00.882Z,94.20
2022-12-19T18:25:30.915Z,94.70
2022-12-19T18:27:58.295Z,95.40
2022-12-19T18:30:25.850Z,94.90
2022-12-19T18:33:00.383Z,95.40
2022-12-19T18:35:34.839Z,95.00
2022-12-19T18:38:04.481Z,95.20
2022-12-19T18:40:31.976Z,95.40
2022-12-19T18:42:59.453Z,95.80
2022-12-19T18:45:36.584Z,96.10
2022-12-19T18:48:06.813Z,95.90
2022-12-19T18:50:34.095Z,95.80
2022-12-19T18:53:01.122Z,96.70
2022-12-19T18:55:29.610Z,96.80
2022-12-19T18:57:56.525Z,96.20
2022-12-19T19:00:25.449Z,96.00
2022-12-19T19:02:53.998Z,97.00
2022-12-19T19:05:24.603Z,97.40
2022-12-19T19:07:51.911Z,97.40
2022-12-19T19:10:24.240Z,97.10
2022-12-19T19:12:51.474Z,96.50
2022-12-19T19:15:23.897Z,96.80
2022-12-19T19:17:57.254Z,96.60
2022-12-19T19:20:25.064Z,97.00
2022-12-19T19:22:53.116Z,97.50
2022-12-19T19:25:20.543Z,97.40
2022-12-19T19:27:47.523Z,96.90
2022-12-19T19:30:14.682Z,97.40
2022-12-19T19:32:47.152Z,97.70
2022-12-19T19:35:16.775Z,97.20
2022-12-19T19:37:44.853Z,96.40
2022-12-19T19:40:12.267Z,97.00
2022-12-19T19:42:39.145Z,97.00
2022-12-19T19:45:06.573Z,96.90
2022-12-19T19:47:36.297Z,96.50
2022-12-19T19:50:07.522Z,97.00
2022-12-19T19:52:34.792Z,95.90
2022-12-19T19:55:01.765Z,95.70
2022-12-19T19:57:28.714Z,96.20
2022-12-19T20:00:04.350Z,95.50
2022-12-19T20:02:49.031Z,96.20
2022-12-19T20:05:16.139Z,96.30
2022-12-19T20:07:43.184Z,95.50
2022-12-19T20:10:10.765Z,95.40
2022-12-19T20:12:37.470Z,95.70
2022-12-19T20:15:05.151Z,95.50
2022-12-19T20:17:31.875Z,95.30
2022-12-19T20:19:58.584Z,95.00
2022-12-19T20:22:25.295Z,95.50
2022-12-19T20:24:52.120Z,95.50
2022-12-19T20:27:18.833Z,95.20
2022-12-19T20:29:45.956Z,94.70
2022-12-19T20:32:14.694Z,95.40
2022-12-19T20:34:41.471Z,95.50
2022-12-19T20:37:08.296Z,95.30
2022-12-19T20:39:35.217Z,95.40
2022-12-19T20:42:02.104Z,96.20
2022-12-19T20:44:29.718Z,96.30
2022-12-19T20:46:56.785Z,95.80
2022-12-19T20:49:23.806Z,96.00
2022-12-19T20:51:50.526Z,96.00
2022-12-19T20:54:18.230Z,96.00
2022-12-19T20:56:45.172Z,96.60
2022-12-19T20:59:12.054Z,97.00
2022-12-19T21:01:39.317Z,96.20
2022-12-19T21:04:06.328Z,96.70
2022-12-19T21:06:33.635Z,97.00
2022-12-19T21:09:00.388Z,96.70
2022-12-19T21:11:30.986Z,96.60
2022-12-19T21:13:57.875Z,97.10
2022-12-19T21:16:24.800Z,97.00
2022-12-19T21:18:52.034Z,96.70
2022-12-19T21:21:24.468Z,97.20
2022-12-19T21:23:51.736Z,97.10
2022-12-19T21:26:22.078Z,97.90
2022-12-19T21:28:48.918Z,97.70
2022-12-19T21:31:22.625Z,97.80
2022-12-19T21:33:51.484Z,97.10
2022-12-19T21:36:21.721Z,97.60
2022-12-19T21:38:50.583Z,96.90
2022-12-19T21:41:19.235Z,97.80
2022-12-19T21:43:47.812Z,98.30
2022-12-19T21:46:16.368Z,97.70
2022-12-19T21:48:45.190Z,97.50
2022-12-19T21:51:13.312Z,98.40
2022-12-19T21:53:40.707Z,98.00
2022-12-19T21:56:26.498Z,97.60
2022-12-19T21:58:56.564Z,97.80
2022-12-19T22:01:24.621Z,98.20
2022-12-19T22:03:52.668Z,98.30
2022-12-19T22:06:27.735Z,98.90
2022-12-19T22:08:55.615Z,98.40
2022-12-19T22:11:22.745Z,98.60
2022-12-19T22:13:50.101Z,98.30
2022-12-19T22:16:17.549Z,97.50
2022-12-19T22:18:45.201Z,98.00
2022-12-19T22:21:13.534Z,98.40
2022-12-19T22:23:41.318Z,98.30
2022-12-19T22:26:09.370Z,99.10
2022-12-19T22:28:38.309Z,98.50
2022-12-19T22:31:15.800Z,98.50
2022-12-19T22:33:42.834Z,98.90
2022-12-19T22:36:12.834Z,98.60
2022-12-19T22:38:46.665Z,98.20
2022-12-19T22:41:14.032Z,98.50
2022-12-19T22:43:40.831Z,98.40
2022-12-19T22:46:21.914Z,98.40
2022-12-19T22:48:50.223Z,99.40
2022-12-19T22:51:18.293Z,98.40
2022-12-19T22:53:49.576Z,98.20
2022-12-19T22:56:18.814Z,98.50
2022-12-19T22:58:47.732Z,98.10
2022-12-19T23:01:29.743Z,97.70
2022-12-19T23:03:58.847Z,97.40
2022-12-19T23:06:27.578Z,97.50
2022-12-19T23:08:54.447Z,97.80
2022-12-19T23:11:23.949Z,98.00
2022-12-19T23:13:50.815Z,97.00
2022-12-19T23:16:18.031Z,97.50
2022-12-19T23:18:44.968Z,97.50
2022-12-19T23:21:14.472Z,97.30
2022-12-19T23:23:42.756Z,97.70
2022-12-19T23:26:15.804Z,97.80
2022-12-19T23:28:43.978Z,97.40
2022-12-19T23:31:12.709Z,97.30
2022-12-19T23:33:39.759Z,98.00
2022-12-19T23:36:06.949Z,97.70
2022-12-19T23:38:34.538Z,97.90
2022-12-19T23:41:08.291Z,98.10
2022-12-19T23:43:36.403Z,98.40
2022-12-19T23:46:21.298Z,98.30
2022-12-19T23:48:55.463Z,98.40
2022-12-19T23:51:27.295Z,98.80
2022-12-19T23:53:55.116Z,98.10
2022-12-19T23:56:24.078Z,97.80
2022-12-19T23:58:50.930Z,97.70
